createdAt,value
2022-11-22T00:02:09.922Z,5.85
2022-11-22T00:04:36.045Z,5.81
2022-11-22T00:07:02.187Z,5.84
2022-11-22T00:09:28.601Z,5.82
2022-11-22T00:11:54.854Z,5.83
2022-11-22T00:14:20.952Z,5.80
2022-11-22T00:16:47.091Z,5.85
2022-11-22T00:19:13.185Z,5.79
2022-11-22T00:21:39.285Z,5.66
2022-11-22T00:24:05.408Z,5.73
2022-11-22T00:26:31.505Z,5.64
2022-11-22T00:28:57.590Z,5.63
2022-11-22T00:31:23.748Z,5.69
2022-11-22T00:33:49.856Z,5.63
2022-11-22T00:36:15.957Z,5.62
2022-11-22T00:38:42.577Z,5.66
2022-11-22T00:41:08.686Z,5.64
2022-11-22T00:43:34.791Z,5.55
2022-11-22T00:46:00.908Z,5.49
2022-11-22T00:48:27.007Z,5.50
2022-11-22T00:50:53.105Z,5.52
2022-11-22T00:53:19.215Z,5.53
2022-11-22T00:55:45.311Z,5.53
2022-11-22T00:58:11.416Z,5.55
2022-11-22T01:00:37.579Z,5.57
2022-11-22T01:03:03.776Z,5.59
2022-11-22T01:05:29.883Z,5.60
2022-11-22T01:07:56.001Z,5.59
2022-11-22T01:10:22.107Z,5.62
2022-11-22T01:12:48.204Z,5.62
2022-11-22T01:15:14.333Z,5.62
2022-11-22T01:17:40.430Z,5.59
2022-11-22T01:20:06.523Z,5.68
2022-11-22T01:22:32.645Z,5.63
2022-11-22T01:24:58.745Z,5.69
2022-11-22T01:27:24.833Z,5.75
2022-11-22T01:29:50.999Z,5.72
2022-11-22T01:32:17.105Z,5.77
2022-11-22T01:34:43.201Z,5.80
2022-11-22T01:37:09.306Z,5.80
2022-11-22T01:39:35.409Z,5.75
2022-11-22T01:42:01.524Z,5.80
2022-11-22T01:44:28.010Z,5.85
2022-11-22T01:46:54.097Z,5.88
2022-11-22T01:49:20.197Z,5.89
2022-11-22T01:51:46.325Z,5.91
2022-11-22T01:54:12.420Z,5.88
2022-11-22T01:56:38.508Z,5.94
2022-11-22T01:59:04.630Z,5.97
2022-11-22T02:01:30.800Z,5.90
2022-11-22T02:03:56.945Z,5.98
2022-11-22T02:06:23.065Z,6.01
2022-11-22T02:08:49.147Z,6.01
2022-11-22T02:11:15.240Z,6.01
2022-11-22T02:13:41.348Z,6.03
2022-11-22T02:16:07.443Z,5.97
2022-11-22T02:18:33.537Z,6.07
2022-11-22T02:20:59.675Z,6.08
2022-11-22T02:23:25.773Z,6.13
2022-11-22T02:25:51.860Z,6.11
2022-11-22T02:28:17.981Z,6.06
2022-11-22T02:30:44.074Z,6.06
2022-11-22T02:33:10.180Z,6.10
2022-11-22T02:35:36.301Z,6.08
2022-11-22T02:38:02.431Z,6.03
2022-11-22T02:40:28.523Z,6.07
2022-11-22T02:42:54.637Z,6.06
2022-11-22T02:45:20.791Z,6.00
2022-11-22T02:47:46.898Z,6.04
2022-11-22T02:50:13.014Z,6.01
2022-11-22T02:52:39.102Z,5.91
2022-11-22T02:55:05.184Z,6.00
2022-11-22T02:57:31.303Z,6.07
2022-11-22T02:59:57.387Z,6.05
2022-11-22T03:02:23.473Z,6.00
2022-11-22T03:04:49.583Z,6.05
2022-11-22T03:07:15.727Z,6.02
2022-11-22T03:09:41.866Z,6.08
2022-11-22T03:12:08.262Z,6.11
2022-11-22T03:14:34.357Z,6.13
2022-11-22T03:17:00.452Z,6.14
2022-11-22T03:19:26.568Z,6.14
2022-11-22T03:21:52.670Z,6.15
2022-11-22T03:24:18.765Z,6.18
2022-11-22T03:26:44.935Z,6.19
2022-11-22T03:29:11.036Z,6.24
2022-11-22T03:31:37.164Z,6.24
2022-11-22T03:34:03.268Z,6.19
2022-11-22T03:36:29.377Z,6.18
2022-11-22T03:38:55.477Z,6.22
2022-11-22T03:41:21.593Z,6.24
2022-11-22T03:43:47.682Z,6.22
2022-11-22T03:46:13.767Z,6.25
2022-11-22T03:48:40.375Z,6.33
2022-11-22T03:51:06.467Z,6.38
2022-11-22T03:53:32.557Z,6.38
2022-11-22T03:55:58.661Z,6.33
2022-11-22T03:58:24.765Z,6.37
2022-11-22T04:00:50.861Z,6.40
2022-11-22T04:03:16.991Z,6.38
2022-11-22T04:05:43.096Z,6.45
2022-11-22T04:08:09.198Z,6.48
2022-11-22T04:10:35.337Z,6.50
2022-11-22T04:13:01.455Z,6.49
2022-11-22T04:15:27.558Z,6.49
2022-11-22T04:17:53.673Z,6.49
2022-11-22T04:20:19.795Z,6.53
2022-11-22T04:22:45.887Z,6.50
2022-11-22T04:25:12.003Z,6.53
2022-11-22T04:27:38.105Z,6.51
2022-11-22T04:30:04.189Z,6.56
2022-11-22T04:32:32.125Z,6.62
2022-11-22T04:34:58.221Z,6.63
2022-11-22T04:37:24.310Z,6.60
2022-11-22T04:39:50.895Z,6.64
2022-11-22T04:42:16.987Z,6.62
2022-11-22T04:44:43.104Z,6.64
2022-11-22T04:47:09.219Z,6.62
2022-11-22T04:49:35.311Z,6.62
2022-11-22T04:52:01.420Z,6.63
2022-11-22T04:54:27.583Z,6.63
2022-11-22T04:56:53.686Z,6.58
2022-11-22T04:59:19.780Z,6.51
2022-11-22T05:01:45.906Z,6.39
2022-11-22T05:04:12.014Z,6.35
2022-11-22T05:06:38.119Z,6.34
2022-11-22T05:09:04.243Z,6.28
2022-11-22T05:11:30.362Z,6.27
2022-11-22T05:13:56.456Z,6.23
2022-11-22T05:16:22.570Z,6.16
2022-11-22T05:18:48.651Z,6.17
2022-11-22T05:21:14.777Z,6.10
2022-11-22T05:23:40.909Z,6.12
2022-11-22T05:26:06.995Z,6.11
2022-11-22T05:28:33.103Z,6.13
2022-11-22T05:30:59.216Z,6.04
2022-11-22T05:33:25.304Z,6.06
2022-11-22T05:35:51.396Z,6.03
2022-11-22T05:38:17.517Z,5.93
2022-11-22T05:40:43.651Z,5.92
2022-11-22T05:43:09.747Z,5.88
2022-11-22T05:45:35.860Z,5.82
2022-11-22T05:48:01.954Z,5.81
2022-11-22T05:50:28.062Z,5.81
2022-11-22T05:52:54.179Z,5.80
2022-11-22T05:55:20.276Z,5.73
2022-11-22T05:57:46.368Z,5.71
2022-11-22T06:00:12.476Z,5.77
2022-11-22T06:02:42.770Z,5.67
2022-11-22T06:05:08.919Z,5.69
2022-11-22T06:07:35.158Z,5.59
2022-11-22T06:10:01.391Z,5.65
2022-11-22T06:12:27.499Z,5.62
2022-11-22T06:14:53.611Z,5.66
2022-11-22T06:17:19.711Z,5.54
2022-11-22T06:19:45.800Z,5.52
2022-11-22T06:22:11.932Z,5.56
2022-11-22T06:24:38.035Z,5.53
2022-11-22T06:27:04.124Z,5.51
2022-11-22T06:29:30.485Z,5.44
2022-11-22T06:32:00.415Z,5.42
2022-11-22T06:34:29.547Z,5.44
2022-11-22T06:36:55.668Z,5.47
2022-11-22T06:39:21.749Z,5.48
2022-11-22T06:41:47.856Z,5.46
2022-11-22T06:44:14.456Z,5.47
2022-11-22T06:46:40.557Z,5.46
2022-11-22T06:49:06.653Z,5.39
2022-11-22T06:51:32.773Z,5.35
2022-11-22T06:53:58.867Z,5.38
2022-11-22T06:56:24.957Z,5.44
2022-11-22T06:58:51.551Z,5.40
2022-11-22T07:01:17.682Z,5.40
2022-11-22T07:03:43.793Z,5.39
2022-11-22T07:06:09.899Z,5.35
2022-11-22T07:08:36.017Z,5.32
2022-11-22T07:11:02.108Z,5.26
2022-11-22T07:13:28.223Z,5.20
2022-11-22T07:15:54.322Z,5.24
2022-11-22T07:18:20.404Z,5.23
2022-11-22T07:20:46.536Z,5.23
2022-11-22T07:23:12.641Z,5.26
2022-11-22T07:25:38.736Z,5.25
2022-11-22T07:28:04.843Z,5.30
2022-11-22T07:30:31.093Z,5.30
2022-11-22T07:32:57.188Z,5.34
2022-11-22T07:35:23.296Z,5.31
2022-11-22T07:37:49.435Z,5.24
2022-11-22T07:40:15.525Z,5.21
2022-11-22T07:42:41.637Z,5.20
2022-11-22T07:45:07.741Z,5.28
2022-11-22T07:47:33.839Z,5.31
2022-11-22T07:49:59.943Z,5.29
2022-11-22T07:52:26.031Z,5.31
2022-11-22T07:54:52.128Z,5.26
2022-11-22T07:57:18.737Z,5.28
2022-11-22T07:59:44.842Z,5.28
2022-11-22T08:02:10.975Z,5.27
2022-11-22T08:04:37.402Z,5.35
2022-11-22T08:07:03.544Z,5.40
2022-11-22T08:09:29.935Z,5.45
2022-11-22T08:11:56.243Z,5.45
2022-11-22T08:14:22.336Z,5.41
2022-11-22T08:16:48.425Z,5.48
2022-11-22T08:19:14.557Z,5.49
2022-11-22T08:21:40.673Z,5.45
2022-11-22T08:24:06.760Z,5.47
2022-11-22T08:26:32.868Z,5.52
2022-11-22T08:28:59.047Z,5.48
2022-11-22T08:31:25.172Z,5.52
2022-11-22T08:33:51.317Z,5.54
2022-11-22T08:36:17.415Z,5.53
2022-11-22T08:38:43.491Z,5.55
2022-11-22T08:41:09.594Z,5.55
2022-11-22T08:43:35.695Z,5.62
2022-11-22T08:46:01.804Z,5.63
2022-11-22T08:48:27.967Z,5.66
2022-11-22T08:50:54.095Z,5.67
2022-11-22T08:53:20.189Z,5.71
2022-11-22T08:55:46.300Z,5.71
2022-11-22T08:58:12.396Z,5.72
2022-11-22T09:00:38.491Z,5.76
2022-11-22T09:03:04.606Z,5.83
2022-11-22T09:05:30.737Z,5.82
2022-11-22T09:10:43.614Z,5.89
2022-11-22T09:13:09.766Z,5.86
2022-11-22T09:15:35.885Z,5.88
2022-11-22T09:18:02.020Z,5.89
2022-11-22T09:20:28.147Z,5.89
2022-11-22T09:22:54.231Z,5.95
2022-11-22T09:25:20.354Z,6.02
2022-11-22T09:27:46.490Z,6.05
2022-11-22T09:30:12.633Z,6.08
2022-11-22T09:32:38.750Z,6.12
2022-11-22T09:35:04.866Z,6.19
2022-11-22T09:37:30.957Z,6.26
2022-11-22T09:39:57.067Z,6.21
2022-11-22T09:42:23.177Z,6.21
2022-11-22T09:44:49.273Z,6.22
2022-11-22T09:47:15.383Z,6.33
2022-11-22T09:49:41.481Z,6.33
2022-11-22T09:52:07.581Z,6.31
2022-11-22T09:54:33.733Z,6.37
2022-11-22T09:56:59.833Z,6.36
2022-11-22T09:59:25.932Z,6.38
2022-11-22T10:01:52.100Z,6.46
2022-11-22T10:04:18.257Z,6.49
2022-11-22T10:06:44.358Z,6.45
2022-11-22T10:09:10.769Z,6.52
2022-11-22T10:11:37.247Z,6.57
2022-11-22T10:14:03.394Z,6.60
2022-11-22T10:16:29.511Z,6.60
2022-11-22T10:18:55.613Z,6.59
2022-11-22T10:21:21.706Z,6.61
2022-11-22T10:23:47.842Z,6.62
2022-11-22T10:26:13.928Z,6.69
2022-11-22T10:28:40.037Z,6.71
2022-11-22T10:31:06.146Z,6.73
2022-11-22T10:33:32.248Z,6.70
2022-11-22T10:35:58.519Z,6.77
2022-11-22T10:38:24.756Z,6.80
2022-11-22T10:40:50.869Z,6.82
2022-11-22T10:43:16.969Z,6.80
2022-11-22T10:45:43.084Z,6.91
2022-11-22T10:48:09.181Z,6.87
2022-11-22T10:50:35.325Z,6.83
2022-11-22T10:53:01.954Z,6.91
2022-11-22T10:55:28.056Z,7.08
2022-11-22T10:57:54.184Z,7.10
2022-11-22T11:00:20.329Z,7.09
2022-11-22T11:02:46.428Z,7.01
2022-11-22T11:05:12.525Z,7.11
2022-11-22T11:07:38.713Z,7.04
2022-11-22T11:10:14.923Z,7.09
2022-11-22T11:12:46.426Z,7.21
2022-11-22T11:15:12.538Z,7.17
2022-11-22T11:17:38.780Z,7.34
2022-11-22T11:20:04.920Z,7.24
2022-11-22T11:22:58.522Z,7.17
2022-11-22T11:25:17.163Z,7.25
2022-11-22T11:27:43.264Z,7.27
2022-11-22T11:30:09.363Z,7.21
2022-11-22T11:32:35.468Z,7.18
2022-11-22T11:35:01.558Z,7.19
2022-11-22T11:37:27.648Z,7.17
2022-11-22T11:39:53.760Z,7.09
2022-11-22T11:42:19.845Z,7.07
2022-11-22T11:44:45.937Z,7.27
2022-11-22T11:47:12.069Z,7.23
2022-11-22T11:49:38.160Z,7.22
2022-11-22T11:52:04.258Z,7.12
2022-11-22T11:54:30.858Z,7.13
2022-11-22T11:56:56.955Z,7.15
2022-11-22T11:59:23.042Z,7.19
2022-11-22T12:01:49.213Z,7.16
2022-11-22T12:04:15.348Z,7.13
2022-11-22T12:06:41.445Z,7.19
2022-11-22T12:09:07.577Z,7.24
2022-11-22T12:11:33.720Z,7.31
2022-11-22T12:16:46.439Z,7.21
2022-11-22T12:19:14.976Z,7.15
2022-11-22T12:21:41.495Z,7.17
2022-11-22T12:24:40.976Z,7.19
2022-11-22T12:26:53.922Z,7.19
2022-11-22T12:29:20.157Z,7.23
2022-11-22T12:31:46.241Z,7.31
2022-11-22T12:34:12.492Z,7.41
2022-11-22T12:36:38.885Z,7.27
2022-11-22T12:39:05.019Z,7.18
2022-11-22T12:41:31.138Z,7.24
2022-11-22T12:43:57.322Z,7.31
2022-11-22T12:46:26.699Z,7.36
2022-11-22T12:48:52.895Z,7.37
2022-11-22T12:51:20.209Z,7.35
2022-11-22T12:53:46.915Z,7.33
2022-11-22T12:56:13.032Z,7.42
2022-11-22T12:58:39.159Z,7.55
2022-11-22T13:01:05.291Z,7.55
2022-11-22T13:03:31.425Z,7.51
2022-11-22T13:05:57.552Z,7.53
2022-11-22T13:08:23.636Z,7.50
2022-11-22T13:10:49.739Z,7.47
2022-11-22T13:13:15.844Z,7.34
2022-11-22T13:15:41.938Z,7.45
2022-11-22T13:18:08.060Z,7.49
2022-11-22T13:20:36.928Z,7.54
2022-11-22T13:23:07.029Z,7.37
2022-11-22T13:25:33.130Z,7.42
2022-11-22T13:27:59.247Z,7.46
2022-11-22T13:30:25.335Z,7.33
2022-11-22T13:32:51.433Z,7.42
2022-11-22T13:35:17.549Z,7.38
2022-11-22T13:37:48.104Z,7.39
2022-11-22T13:40:14.192Z,7.38
2022-11-22T13:42:40.304Z,7.53
2022-11-22T13:45:06.400Z,7.54
2022-11-22T13:47:32.500Z,7.60
2022-11-22T13:49:58.605Z,7.72
2022-11-22T13:52:24.687Z,7.70
2022-11-22T13:54:50.869Z,7.73
2022-11-22T13:57:17.025Z,7.71
2022-11-22T13:59:43.117Z,7.68
2022-11-22T14:02:09.216Z,7.67
2022-11-22T14:04:35.952Z,7.68
2022-11-22T14:07:02.056Z,7.73
2022-11-22T14:09:28.160Z,7.80
2022-11-22T14:11:54.279Z,7.80
2022-11-22T14:14:20.445Z,7.74
2022-11-22T14:16:46.547Z,7.76
2022-11-22T14:19:12.970Z,7.76
2022-11-22T14:21:39.262Z,7.87
2022-11-22T14:24:05.357Z,7.79
2022-11-22T14:26:31.501Z,7.78
2022-11-22T14:28:57.661Z,7.80
2022-11-22T14:31:23.748Z,7.74
2022-11-22T14:33:49.865Z,7.80
2022-11-22T14:36:15.963Z,7.81
2022-11-22T14:38:42.065Z,7.83
2022-11-22T14:41:08.189Z,7.80
2022-11-22T14:43:34.281Z,7.81
2022-11-22T14:46:00.381Z,7.74
2022-11-22T14:48:26.495Z,7.71
2022-11-22T14:50:52.600Z,7.66
2022-11-22T14:53:18.867Z,7.64
2022-11-22T14:55:45.126Z,7.53
2022-11-22T14:58:11.451Z,7.37
2022-11-22T15:00:37.820Z,7.40
2022-11-22T15:03:05.545Z,7.39
2022-11-22T15:09:12.525Z,7.30
2022-11-22T15:09:17.241Z,7.36
2022-11-22T15:11:04.276Z,7.24
2022-11-22T15:13:30.580Z,7.19
2022-11-22T15:57:44.950Z,6.44
2022-11-22T16:00:11.762Z,6.44
2022-11-22T16:02:37.855Z,6.45
2022-11-22T16:06:08.489Z,6.48
2022-11-22T16:07:50.584Z,6.35
2022-11-22T16:10:16.747Z,6.34
2022-11-22T16:12:42.839Z,6.31
2022-11-22T16:15:08.987Z,6.31
2022-11-22T16:17:35.102Z,6.34
2022-11-22T16:20:04.216Z,6.30
2022-11-22T16:22:31.346Z,6.30
2022-11-22T16:24:57.513Z,6.28
2022-11-22T16:27:24.568Z,6.26
2022-11-22T16:29:50.680Z,6.27
2022-11-22T16:32:16.855Z,6.26
2022-11-22T16:34:42.972Z,6.27
2022-11-22T16:37:09.102Z,6.31
2022-11-22T16:39:35.284Z,6.26
2022-11-22T16:42:01.390Z,6.35
2022-11-22T16:44:27.688Z,6.36
2022-11-22T16:46:53.932Z,6.36
2022-11-22T16:49:20.118Z,6.40
2022-11-22T16:51:46.243Z,6.43
2022-11-22T16:54:12.387Z,6.39
2022-11-22T16:56:38.539Z,6.34
2022-11-22T16:59:09.782Z,6.36
2022-11-22T17:01:40.621Z,6.34
2022-11-22T17:04:06.762Z,6.37
2022-11-22T17:06:32.858Z,6.40
2022-11-22T17:08:58.986Z,6.44
2022-11-22T17:11:25.080Z,6.44
2022-11-22T17:13:51.173Z,6.46
2022-11-22T17:16:17.276Z,6.51
2022-11-22T17:18:43.350Z,6.46
2022-11-22T17:21:09.441Z,6.49
2022-11-22T17:23:35.601Z,6.50
2022-11-22T17:26:01.712Z,6.53
2022-11-22T17:28:27.809Z,6.52
2022-11-22T17:30:53.972Z,6.50
2022-11-22T17:33:20.078Z,6.49
2022-11-22T17:35:46.188Z,6.46
2022-11-22T17:38:12.319Z,6.51
2022-11-22T17:40:38.419Z,6.49
2022-11-22T17:43:04.519Z,6.52
2022-11-22T17:45:30.637Z,6.40
2022-11-22T17:47:56.739Z,6.47
2022-11-22T17:50:22.833Z,6.43
2022-11-22T17:52:48.953Z,6.43
2022-11-22T17:55:15.053Z,6.47
2022-11-22T17:57:41.161Z,6.49
2022-11-22T18:00:07.300Z,6.46
2022-11-22T18:02:33.436Z,6.48
2022-11-22T18:04:59.593Z,6.46
2022-11-22T18:07:25.804Z,6.46
2022-11-22T18:09:52.009Z,6.52
2022-11-22T18:12:18.091Z,6.50
2022-11-22T18:14:44.501Z,6.45
2022-11-22T18:17:10.600Z,6.49
2022-11-22T18:19:36.710Z,6.49
2022-11-22T18:22:02.902Z,6.52
2022-11-22T18:24:29.044Z,6.54
2022-11-22T18:26:55.163Z,6.56
2022-11-22T18:32:07.812Z,6.63
2022-11-22T18:34:33.931Z,6.65
2022-11-22T18:37:02.585Z,6.60
2022-11-22T18:39:29.173Z,6.60
2022-11-22T18:41:55.562Z,6.58
2022-11-22T18:44:21.664Z,6.51
2022-11-22T18:46:47.762Z,6.62
2022-11-22T18:49:13.860Z,6.58
2022-11-22T18:51:40.203Z,6.61
2022-11-22T18:54:06.336Z,6.65
2022-11-22T18:56:32.453Z,6.70
2022-11-22T18:58:58.571Z,6.61
2022-11-22T19:01:24.750Z,6.68
2022-11-22T19:03:50.914Z,6.65
2022-11-22T19:06:17.028Z,6.67
2022-11-22T19:08:43.134Z,6.70
2022-11-22T19:11:09.248Z,6.73
2022-11-22T19:13:35.353Z,6.72
2022-11-22T19:16:01.460Z,6.72
2022-11-22T19:18:29.212Z,6.73
2022-11-22T19:20:58.916Z,6.76
2022-11-22T19:23:25.007Z,6.74
2022-11-22T19:25:51.107Z,6.72
2022-11-22T19:28:17.204Z,6.71
2022-11-22T19:30:44.438Z,6.77
2022-11-22T19:33:11.116Z,6.78
2022-11-22T19:35:37.207Z,6.80
2022-11-22T19:38:03.316Z,6.79
2022-11-22T19:40:29.429Z,6.79
2022-11-22T19:42:55.515Z,6.78
2022-11-22T19:45:21.618Z,6.82
2022-11-22T19:47:47.735Z,6.81
2022-11-22T19:50:13.822Z,6.80
2022-11-22T19:52:39.920Z,6.82
2022-11-22T19:55:06.018Z,6.82
2022-11-22T19:57:32.112Z,6.78
2022-11-22T20:00:00.171Z,6.83
2022-11-22T20:02:26.490Z,6.85
2022-11-22T20:04:52.575Z,6.86
2022-11-22T20:07:18.715Z,6.83
2022-11-22T20:09:44.817Z,6.86
2022-11-22T20:12:10.919Z,6.87
2022-11-22T20:14:37.000Z,6.85
2022-11-22T20:17:03.121Z,6.87
2022-11-22T20:19:34.064Z,6.85
2022-11-22T20:22:00.653Z,6.87
2022-11-22T20:24:26.781Z,6.83
2022-11-22T20:26:52.875Z,6.82
2022-11-22T20:29:18.970Z,6.80
2022-11-22T20:31:45.111Z,6.75
2022-11-22T20:34:11.207Z,6.72
2022-11-22T20:36:37.295Z,6.70
2022-11-22T20:39:08.597Z,6.69
2022-11-22T20:41:36.105Z,6.60
2022-11-22T20:44:02.209Z,6.63
2022-11-22T20:46:28.317Z,6.67
2022-11-22T20:48:54.417Z,6.63
2022-11-22T20:51:20.503Z,6.70
2022-11-22T20:53:46.646Z,6.73
2022-11-22T20:56:12.751Z,6.71
2022-11-22T20:58:38.852Z,6.73
2022-11-22T21:01:05.050Z,6.80
2022-11-22T21:03:31.181Z,6.76
2022-11-22T21:05:57.278Z,6.77
2022-11-22T21:08:23.397Z,6.85
2022-11-22T21:10:49.491Z,6.86
2022-11-22T21:13:15.591Z,6.82
2022-11-22T21:15:41.748Z,6.79
2022-11-22T21:20:54.224Z,6.90
2022-11-22T21:23:20.334Z,6.89
2022-11-22T21:25:46.437Z,6.84
2022-11-22T21:28:12.551Z,6.87
2022-11-22T21:30:38.637Z,6.90
2022-11-22T21:33:04.733Z,6.79
2022-11-22T21:35:30.866Z,6.74
2022-11-22T21:37:56.971Z,6.76
2022-11-22T21:40:23.073Z,6.81
2022-11-22T21:42:49.448Z,6.82
2022-11-22T21:45:15.604Z,6.87
2022-11-22T21:47:41.700Z,6.91
2022-11-22T21:50:11.602Z,6.95
2022-11-22T21:52:38.131Z,6.92
2022-11-22T21:55:04.236Z,7.01
2022-11-22T21:57:30.357Z,6.95
2022-11-22T21:59:56.453Z,7.01
2022-11-22T22:02:22.563Z,6.97
2022-11-22T22:04:48.757Z,7.06
2022-11-22T22:07:36.454Z,7.02
2022-11-22T22:10:00.968Z,7.07
2022-11-22T22:12:27.057Z,7.09
2022-11-22T22:14:53.150Z,7.02
2022-11-22T22:17:19.261Z,7.02
2022-11-22T22:19:45.367Z,7.06
2022-11-22T22:22:11.454Z,7.09
2022-11-22T22:24:37.616Z,7.07
2022-11-22T22:27:03.706Z,7.15
2022-11-22T22:29:30.075Z,7.12
2022-11-22T22:31:56.449Z,7.08
2022-11-22T22:34:22.527Z,7.12
2022-11-22T22:36:48.627Z,7.15
2022-11-22T22:39:14.754Z,7.12
2022-11-22T22:41:40.856Z,7.15
2022-11-22T22:44:06.971Z,7.11
2022-11-22T22:46:33.359Z,7.16
2022-11-22T22:48:59.443Z,7.18
2022-11-22T22:51:31.814Z,7.19
2022-11-22T22:53:59.128Z,7.17
2022-11-22T22:56:25.222Z,7.17
2022-11-22T22:58:51.321Z,7.15
2022-11-22T23:01:17.571Z,7.13
2022-11-22T23:03:43.781Z,7.12
2022-11-22T23:06:09.936Z,7.13
2022-11-22T23:08:36.049Z,7.15
2022-11-22T23:11:02.131Z,7.18
2022-11-22T23:13:28.233Z,7.17
2022-11-22T23:15:58.779Z,7.19
2022-11-22T23:18:25.069Z,7.17
2022-11-22T23:20:51.195Z,7.16
2022-11-22T23:23:17.308Z,7.23
2022-11-22T23:25:43.413Z,7.16
2022-11-22T23:28:09.517Z,7.14
2022-11-22T23:30:35.620Z,7.16
2022-11-22T23:33:01.713Z,7.13
2022-11-22T23:35:27.803Z,7.17
2022-11-22T23:37:53.924Z,7.22
2022-11-22T23:40:20.032Z,7.18
2022-11-22T23:42:46.130Z,7.21
2022-11-22T23:45:12.239Z,7.18
2022-11-22T23:47:38.327Z,7.17
2022-11-22T23:50:04.408Z,7.18
2022-11-22T23:52:30.523Z,7.15
2022-11-22T23:54:56.625Z,7.20
2022-11-22T23:57:22.800Z,7.17
2022-11-22T23:59:48.908Z,7.18
